createdAt,value
2023-04-08T00:02:17.802Z,2.50
2023-04-08T00:07:19.267Z,4.00
2023-04-08T00:12:21.109Z,4.78
2023-04-08T00:17:22.459Z,5.20
2023-04-08T00:22:24.025Z,4.65
2023-04-08T00:27:25.740Z,3.88
2023-04-08T00:32:28.199Z,3.33
2023-04-08T00:37:29.901Z,2.65
2023-04-08T00:42:31.283Z,3.67
2023-04-08T00:47:32.701Z,3.25
2023-04-08T00:52:34.124Z,3.45
2023-04-08T00:57:36.366Z,4.38
2023-04-08T01:02:46.747Z,3.97
2023-04-08T01:07:49.696Z,4.55
2023-04-08T01:13:12.107Z,5.43
2023-04-08T01:18:15.681Z,6.30
2023-04-08T01:23:59.074Z,6.22
2023-04-08T01:29:03.109Z,6.78
2023-04-08T01:34:06.445Z,5.85
2023-04-08T01:39:08.353Z,6.72
2023-04-08T01:44:11.560Z,6.72
2023-04-08T01:49:14.483Z,7.32
2023-04-08T01:54:16.132Z,7.05
2023-04-08T01:59:21.663Z,6.82
2023-04-08T02:04:23.129Z,7.22
2023-04-08T02:09:25.252Z,7.53
2023-04-08T02:14:26.968Z,7.57
2023-04-08T02:19:44.364Z,8.18
2023-04-08T02:24:46.845Z,7.93
2023-04-08T02:29:50.634Z,6.72
2023-04-08T02:34:52.571Z,6.20
2023-04-08T02:39:54.018Z,6.63
2023-04-08T02:44:56.932Z,7.38
2023-04-08T02:49:58.258Z,6.57
2023-04-08T02:54:59.588Z,6.00
2023-04-08T03:00:01.073Z,6.60
2023-04-08T03:05:03.197Z,5.70
2023-04-08T03:10:05.436Z,5.60
2023-04-08T03:15:07.664Z,6.57
2023-04-08T03:20:09.883Z,6.35
2023-04-08T03:25:11.841Z,6.10
2023-04-08T03:30:13.284Z,5.47
2023-04-08T03:35:15.070Z,6.20
2023-04-08T03:40:16.629Z,4.95
2023-04-08T03:45:18.007Z,5.07
2023-04-08T03:50:19.384Z,5.90
2023-04-08T03:55:20.785Z,5.72
2023-04-08T04:00:22.264Z,5.25
2023-04-08T04:05:23.646Z,5.13
2023-04-08T04:10:25.269Z,5.10
2023-04-08T04:15:26.670Z,5.05
2023-04-08T04:20:30.163Z,5.28
2023-04-08T04:25:31.695Z,4.78
2023-04-08T04:30:33.019Z,5.10
2023-04-08T04:35:34.711Z,6.22
2023-04-08T04:40:36.818Z,5.10
2023-04-08T04:45:38.325Z,5.82
2023-04-08T04:50:39.795Z,5.28
2023-04-08T04:55:41.198Z,6.25
2023-04-08T05:00:42.532Z,5.65
2023-04-08T05:05:44.044Z,6.15
2023-04-08T05:10:45.787Z,8.07
2023-04-08T05:15:47.197Z,7.95
2023-04-08T05:20:48.669Z,5.93
2023-04-08T05:25:50.345Z,6.05
2023-04-08T05:30:52.720Z,5.88
2023-04-08T05:35:54.147Z,7.28
2023-04-08T05:40:55.597Z,6.43
2023-04-08T05:45:56.934Z,5.63
2023-04-08T05:50:58.267Z,6.95
2023-04-08T05:55:59.606Z,6.82
2023-04-08T06:01:00.978Z,6.80
2023-04-08T06:06:02.342Z,7.18
2023-04-08T06:11:06.713Z,7.25
2023-04-08T06:16:11.190Z,6.90
2023-04-08T06:21:12.697Z,6.88
2023-04-08T06:26:14.015Z,6.80
2023-04-08T06:36:33.116Z,7.20
2023-04-08T06:41:42.584Z,7.32
2023-04-08T06:46:44.533Z,8.20
2023-04-08T06:51:47.874Z,7.72
2023-04-08T06:56:49.560Z,7.47
2023-04-08T07:01:51.369Z,7.25
2023-04-08T07:06:52.994Z,7.00
2023-04-08T07:11:54.374Z,8.38
2023-04-08T07:16:56.213Z,7.35
2023-04-08T07:21:57.900Z,7.63
2023-04-08T07:26:59.255Z,7.00
2023-04-08T07:32:00.705Z,6.63
2023-04-08T07:37:02.766Z,6.43
2023-04-08T07:42:04.082Z,6.80
2023-04-08T07:47:05.441Z,7.00
2023-04-08T07:52:06.893Z,6.80
2023-04-08T07:57:08.229Z,6.90
2023-04-08T08:02:09.758Z,7.60
2023-04-08T08:07:11.317Z,7.70
2023-04-08T08:12:12.675Z,9.65
2023-04-08T08:17:14.368Z,7.85
2023-04-08T08:22:15.917Z,7.40
2023-04-08T08:27:17.235Z,7.47
2023-04-08T08:32:18.935Z,7.47
2023-04-08T08:37:20.360Z,7.10
2023-04-08T08:42:25.897Z,8.15
2023-04-08T08:47:27.665Z,7.97
2023-04-08T09:03:31.189Z,6.68
2023-04-08T09:08:34.735Z,7.32
2023-04-08T09:13:39.322Z,6.32
2023-04-08T09:18:44.230Z,6.82
2023-04-08T09:23:51.172Z,6.13
2023-04-08T09:29:25.565Z,6.15
2023-04-08T09:34:32.493Z,4.40
2023-04-08T09:39:34.140Z,4.47
2023-04-08T09:44:38.027Z,4.70
2023-04-08T09:49:51.631Z,4.93
2023-04-08T09:54:59.741Z,4.60
2023-04-08T10:10:37.052Z,4.37
2023-04-08T10:15:40.744Z,4.70
2023-04-08T10:20:43.122Z,4.40
2023-04-08T10:25:45.907Z,4.47
2023-04-08T10:30:48.540Z,4.00
2023-04-08T10:35:53.811Z,3.70
2023-04-08T10:40:55.230Z,4.20
2023-04-08T10:45:56.689Z,3.97
2023-04-08T10:51:05.780Z,3.80
2023-04-08T10:56:17.709Z,3.83
2023-04-08T11:01:19.650Z,4.43
2023-04-08T11:06:21.113Z,3.92
2023-04-08T11:11:23.761Z,3.97
2023-04-08T11:16:27.806Z,4.75
2023-04-08T11:21:30.300Z,4.68
2023-04-08T11:26:31.857Z,4.50
2023-04-08T11:31:34.193Z,4.05
2023-04-08T11:36:36.782Z,4.68
2023-04-08T11:41:39.553Z,4.53
2023-04-08T11:46:42.241Z,4.22
2023-04-08T11:52:00.181Z,4.25
2023-04-08T11:57:03.189Z,5.15
2023-04-08T12:02:04.819Z,4.40
2023-04-08T12:07:06.239Z,4.03
2023-04-08T12:12:07.560Z,4.10
2023-04-08T12:17:08.875Z,4.60
2023-04-08T12:22:10.311Z,4.93
2023-04-08T12:27:11.735Z,5.45
2023-04-08T12:32:13.380Z,4.78
2023-04-08T12:37:14.779Z,4.88
2023-04-08T12:42:16.527Z,5.20
2023-04-08T12:47:17.987Z,5.28
2023-04-08T12:52:19.669Z,4.95
2023-04-08T12:57:21.293Z,4.70
2023-04-08T13:02:22.807Z,5.50
2023-04-08T13:07:24.326Z,4.85
2023-04-08T13:12:25.633Z,4.20
2023-04-08T13:17:27.885Z,4.85
2023-04-08T13:22:29.254Z,4.35
2023-04-08T13:27:30.642Z,5.03
2023-04-08T13:32:32.027Z,4.25
2023-04-08T13:37:33.352Z,4.93
2023-04-08T13:42:34.833Z,4.88
2023-04-08T13:47:37.926Z,4.18
2023-04-08T13:52:39.486Z,4.40
2023-04-08T13:57:41.033Z,4.50
2023-04-08T14:02:42.481Z,4.78
2023-04-08T14:07:43.816Z,4.38
2023-04-08T14:12:46.582Z,5.38
2023-04-08T14:17:48.350Z,5.82
2023-04-08T14:22:49.823Z,4.68
2023-04-08T14:27:58.519Z,5.43
2023-04-08T14:33:01.115Z,5.32
2023-04-08T14:38:02.520Z,6.55
2023-04-08T14:43:04.002Z,7.00
2023-04-08T14:48:05.826Z,7.35
2023-04-08T14:53:07.424Z,7.35
2023-04-08T14:58:08.754Z,6.63
2023-04-08T15:03:13.381Z,5.57
2023-04-08T15:08:15.557Z,5.93
2023-04-08T15:13:17.126Z,6.45
2023-04-08T15:18:18.491Z,5.47
2023-04-08T15:23:19.818Z,6.60
2023-04-08T15:28:21.166Z,5.55
2023-04-08T15:33:22.483Z,5.68
2023-04-08T15:38:23.849Z,5.75
2023-04-08T15:43:25.267Z,6.28
2023-04-08T15:48:26.609Z,6.80
2023-04-08T15:53:28.062Z,6.95
2023-04-08T15:58:29.849Z,7.30
2023-04-08T16:03:31.686Z,7.13
2023-04-08T16:08:34.624Z,7.40
2023-04-08T16:13:38.975Z,7.15
2023-04-08T16:18:41.756Z,7.65
2023-04-08T16:23:43.088Z,8.32
2023-04-08T16:28:44.493Z,7.28
2023-04-08T16:33:45.859Z,7.85
2023-04-08T16:38:47.223Z,7.65
2023-04-08T16:43:48.678Z,7.40
2023-04-08T16:48:50.382Z,6.57
2023-04-08T16:53:52.105Z,6.90
2023-04-08T16:58:53.597Z,5.45
2023-04-08T17:03:55.371Z,4.93
2023-04-08T17:08:57.410Z,5.53
2023-04-08T17:13:58.946Z,3.08
2023-04-08T17:19:00.376Z,3.17
2023-04-08T17:24:01.717Z,2.33
2023-04-08T17:29:03.466Z,1.67
2023-04-08T17:34:04.927Z,1.77
2023-04-08T17:39:06.331Z,1.70
2023-04-08T17:44:07.981Z,1.60
2023-04-08T17:49:12.658Z,1.48
2023-04-08T17:54:14.067Z,1.60
2023-04-08T17:59:15.719Z,1.52
2023-04-08T18:04:17.467Z,1.55
2023-04-08T18:09:18.855Z,2.00
2023-04-08T18:14:20.272Z,1.90
2023-04-08T18:19:21.623Z,1.60
2023-04-08T18:24:23.467Z,1.98
2023-04-08T18:29:24.902Z,2.08
2023-04-08T18:34:26.680Z,2.40
2023-04-08T18:39:28.019Z,2.42
2023-04-08T18:44:29.358Z,2.63
2023-04-08T18:49:33.348Z,2.25
2023-04-08T18:54:35.711Z,2.50
2023-04-08T18:59:37.117Z,2.50
2023-04-08T19:04:38.528Z,2.00
2023-04-08T19:09:40.021Z,2.50
2023-04-08T19:14:42.126Z,2.70
2023-04-08T19:19:43.532Z,2.75
2023-04-08T19:24:44.877Z,3.33
2023-04-08T19:29:46.262Z,2.67
2023-04-08T19:34:48.371Z,2.58
2023-04-08T19:39:49.709Z,2.38
2023-04-08T19:44:51.545Z,2.63
2023-04-08T19:49:52.891Z,3.28
2023-04-08T19:54:54.266Z,2.95
2023-04-08T19:59:55.670Z,3.10
2023-04-08T20:04:57.737Z,2.65
2023-04-08T20:09:59.161Z,3.45
2023-04-08T20:15:01.092Z,3.70
2023-04-08T20:20:03.342Z,3.72
2023-04-08T20:25:05.557Z,4.50
2023-04-08T20:30:07.688Z,4.15
2023-04-08T20:35:09.202Z,4.68
2023-04-08T20:40:10.950Z,4.30
2023-04-08T20:45:12.449Z,4.85
2023-04-08T20:50:13.870Z,4.55
2023-04-08T20:55:15.427Z,4.57
2023-04-08T21:00:17.228Z,5.03
2023-04-08T21:05:18.678Z,5.68
2023-04-08T21:10:20.177Z,5.35
2023-04-08T21:15:22.242Z,4.38
2023-04-08T21:20:23.638Z,4.93
2023-04-08T21:25:26.489Z,4.90
2023-04-08T21:30:27.898Z,4.75
2023-04-08T21:35:29.243Z,4.95
2023-04-08T21:40:30.627Z,5.07
2023-04-08T21:45:31.959Z,4.95
2023-04-08T21:50:33.312Z,4.75
2023-04-08T21:55:34.649Z,4.53
2023-04-08T22:00:35.994Z,5.30
2023-04-08T22:05:37.442Z,5.35
2023-04-08T22:10:38.818Z,4.05
2023-04-08T22:15:40.193Z,3.30
2023-04-08T22:20:41.586Z,4.25
2023-04-08T22:25:43.049Z,3.95
2023-04-08T22:30:44.468Z,3.53
2023-04-08T22:35:46.161Z,4.07
2023-04-08T22:40:47.505Z,4.22
2023-04-08T22:45:48.901Z,4.95
2023-04-08T22:50:50.307Z,4.75
2023-04-08T22:55:51.665Z,5.28
2023-04-08T23:00:52.980Z,4.72
2023-04-08T23:05:54.312Z,5.40
2023-04-08T23:10:55.675Z,4.57
2023-04-08T23:15:57.212Z,4.75
2023-04-08T23:20:58.639Z,4.53
2023-04-08T23:26:00.044Z,4.80
2023-04-08T23:31:03.939Z,5.43
2023-04-08T23:36:09.361Z,4.78
2023-04-08T23:41:10.895Z,5.53
2023-04-08T23:46:12.286Z,4.65
2023-04-08T23:51:13.698Z,5.07
2023-04-08T23:56:15.244Z,5.57
